Aviation Digital Data Service (ADDS)

Output produced by METARs form (1810 UTC 18 February 2018)
found at http://www.aviationweather.gov/adds/metars/
 
KCBM 181801Z AUTO 13005KT 10SM SCT023 BKN035 OVC085 14/09 A3023 RMK AO2 SLP240 $
KCBM 181756Z AUTO 12007KT 10SM FEW023 SCT035 OVC085 13/09 A3023 RMK AO2 SLP240 T01340091 10134 20080 58014 $
KCBM 181656Z AUTO 13007KT 10SM OVC095 13/08 A3026 RMK AO2 SLP250 T01260083 $
KCBM 181556Z AUTO 12010KT 10SM SCT100 12/08 A3027 RMK AO2 SLP254 T01150078 $
KCBM 181456Z AUTO 07009KT 10SM FEW019 11/07 A3027 RMK AO2 SLP254 T01070074 50007 $
KCBM 181356Z 03005KT 10SM SCT020 SCT100 09/07 A3027 RMK AO2A SLP254 T00890070 $
KCBM 181326Z COR AUTO 05004KT 10SM SCT100 08/07 A3027 RMK AO2 SLP254 $ COR 1343
KCBM 181321Z COR 05004KT 10SM SCT020 08/07 A3027 RMK AO2A SLP254 $ COR 1322
KCBM 181256Z AUTO 04003KT 10SM OVC019 08/07 A3027 RMK AO2 SLP254 T00810069 $
KCBM 181156Z AUTO 04004KT 10SM OVC019 09/07 A3025 RMK AO2 SLP247 70076 T00850073 10091 20085 52006 $
KCBM 181056Z AUTO 00000KT 10SM OVC019 09/07 A3024 RMK AO2 SLP243 T00860074 $
KCBM 180956Z AUTO 02004KT 10SM OVC020 09/08 A3023 RMK AO2 SLP240 T00890075 $
KCBM 180946Z AUTO 02003KT 10SM OVC020 09/08 A3023 RMK AO2 SLP240 $
KCBM 180856Z AUTO 02005KT 10SM OVC017 09/08 A3023 RMK AO2 SLP240 T00900078 50002 $
KCBM 180826Z AUTO 02003KT 10SM OVC015 09/08 A3023 RMK AO2 SLP240 $
KCBM 180756Z AUTO 02007KT 10SM OVC014 09/08 A3024 RMK AO2 SLP243 T00900079 $
KCBM 180656Z AUTO 02007KT 10SM OVC011 09/08 A3023 RMK AO2 SLP239 T00900082 $
KCBM 180556Z AUTO 01007KT 10SM OVC012 09/08 A3022 RMK AO2 SLP236 60058 T00920083 10116 20092 401930092 50002 $
KCBM 180456Z AUTO 36010KT 10SM OVC013 09/08 A3023 RMK AO2 SLP240 T00930082 $
KCBM 180406Z AUTO 36009KT 10SM OVC011 09/09 A3022 RMK AO2 SLP237 $
KCBM 180356Z AUTO 35007KT 10SM OVC010 10/09 A3022 RMK AO2 CIG 010V012 SLP236 T00950093 $
KCBM 180350Z AUTO 35006KT 10SM OVC010 10/09 A3022 RMK AO2 CIG 010V012 SLP236 $
KCBM 180346Z AUTO 34006KT 10SM OVC012 10/09 A3022 RMK AO2 SLP237 $
KCBM 180336Z AUTO 34006KT 10SM OVC010 10/09 A3022 RMK AO2 CIG 010V012 SLP237 $
KCBM 180306Z AUTO 33010KT 10SM SCT007 OVC012 10/10 A3022 RMK AO2 CIG 008V012 SLP237 $
KCBM 180301Z AUTO 33011KT 10SM OVC010 10/10 A3022 RMK AO2 CIG 007V010 SLP237 $
KCBM 180256Z AUTO 33010KT 10SM OVC008 10/10 A3022 RMK AO2 RAE40 SLP237 P0000 60058 T01000098 52022 $
KCBM 180240Z AUTO 32009KT 10SM OVC008 10/10 A3021 RMK AO2 RAE40 SLP233 $
KCBM 180156Z AUTO 32007KT 10SM -RA OVC008 10/10 A3020 RMK AO2 SLP230 P0012 T01030103 $
KCBM 180131Z AUTO 31009KT 10SM RA OVC009 10/10 A3020 RMK AO2 CIG 005V009 SLP230 $
KCBM 180126Z AUTO 31009KT 9SM -RA BKN007 OVC011 10/10 A3019 RMK AO2 CIG 005V007 SLP227 $
KCBM 180111Z AUTO 30009KT 8SM RA OVC005 11/11 A3020 RMK AO2 PRESRR SLP230 $
KCBM 180056Z AUTO 32008KT 7SM RA OVC003 11/11 A3018 RMK AO2 SLP223 P0046 T01080108 $
KCBM 180048Z AUTO 32010KT 5SM RA BR OVC003 11/11 A3018 RMK AO2 OVC V BKN SLP223 $
KCBM 180043Z AUTO 32007KT 4SM +RA BR BKN003 OVC012 11/11 A3018 RMK AO2 SLP223 $
KCBM 180038Z AUTO 32006KT 4SM +RA BR BKN003 OVC006 11/11 A3017 RMK AO2 VIS 2 3/4 RWY13C CIG 003V005 SLP220 $
KCBM 180033Z AUTO 32007KT 7SM +RA OVC004 11/11 A3016 RMK AO2 VIS 2 3/4 RWY13C CIG 004V007 OVC V BKN SLP216 $
KCBM 180028Z AUTO 31008KT 7SM +RA BKN005 11/11 A3017 RMK AO2 CIG 005V007 SLP220 $
KCBM 180023Z AUTO 32009KT 4SM RA BR SCT002 BKN007 OVC033 11/11 A3017 RMK AO2 CIG 007V009 CIG 006 RWY13C SLP220 $
KCBM 180018Z 32010KT 3SM +RA BR BKN003 BKN007 OVC033 11/11 A3016 RMK AO2A CIG 005V010 SLP216 $
KCBM 180013Z 31009KT 4SM +RA BR SCT003 BKN007 OVC035 11/11 A3016 RMK AO2A VIS 2 3/4 RWY13C CIG 005V011 SLP216 $
KCBM 180008Z 32009KT 5SM +RA BR BKN005 BKN011 OVC041 12/12 A3016 RMK AO2A CIG 005V011 SLP216 $
KCBM 180001Z 31009KT 4SM +RA BKN006 BKN011 OVC041 12/12 A3015 RMK AO2A CIG 005V011 SLP213 $
KCBM 172356Z 31011KT 4SM -RA BKN005 BKN012 OVC043 12/12 A3015 RMK AO2A SLP213 P0013 60016 T01160116 10193 20116 52019 $
KCBM 172341Z 31011KT 4SM RA OVC006 12/12 A3014 RMK AO2A CIG 004V006 SLP209 $
KCBM 172336Z AUTO 31008KT 8SM -RA OVC004 12/12 A3014 RMK AO2 SLP209 $
KCBM 172331Z 31007KT 4SM RA BR OVC004 12/12 A3013 RMK AO2A SLP206 $
KCBM 172326Z 30008KT 3SM RA BR OVC004 12/12 A3013 RMK AO2A SLP206 $
KCBM 172316Z COR AUTO 31007KT 4SM -RA OVC004 12/12 A3013 RMK AO2 SLP206 $ COR 2324
KCBM 172311Z AUTO 30007KT 6SM -RA BR OVC005 12/12 A3013 RMK AO2 SLP206 $
KCBM 172306Z AUTO 31006KT 4SM -RA BR OVC005 12/12 A3012 RMK AO2 SLP203 $
KCBM 172256Z AUTO 30006KT 9SM -RA OVC005 12/12 A3012 RMK AO2 RAE2156DZB2156E2158RAB2158E14RAB17 SLP203 P0003 T01190119 $
KCBM 172242Z AUTO 30006KT 10SM -RA OVC005 12/12 A3011 RMK AO2 RAE2156DZB2156E2158RAB2158E14RAB17 SLP199 $
KCBM 172222Z AUTO 30004KT 7SM -RA OVC006 12/12 A3011 RMK AO2 RAE2156DZB2156E2158RAB2158E14RAB17 SLP199 $
KCBM 172217Z AUTO 31005KT 10SM -RA BKN007 OVC014 12/12 A3011 RMK AO2 RAE2156DZB2156E2158RAB2158E14RAB17 SLP199 $
KCBM 172214Z AUTO 30006KT 10SM BKN007 OVC014 12/12 A3011 RMK AO2 RAE2156DZB2156E2158RAB2158E14 SLP199 $
KCBM 172156Z AUTO 32007KT 10SM -RA BKN007 OVC014 12/12 A3011 RMK AO2 RAB04E14RAB43 BKN V OVC SLP199 P0000 T01170115 $
KCBM 172143Z AUTO 32009KT 10SM -RA OVC007 12/11 A3011 RMK AO2 RAB04E14RAB43 SLP199 $
KCBM 172114Z AUTO 33013KT 10SM OVC007 12/12 A3010 RMK AO2 RAB04E14 OVC V BKN SLP196 $
KCBM 172109Z AUTO 33014KT 10SM -RA OVC007 12/12 A3010 RMK AO2 RAB04 OVC V BKN SLP196 $
KCBM 172104Z AUTO 33015KT 10SM -RA BKN008 OVC014 13/12 A3010 RMK AO2 RAB04 CIG 007 RWY13C SLP196 $
KCBM 172056Z AUTO 33016KT 10SM BKN008 OVC014 13/12 A3009 RMK AO2 CIG 008V014 BKN V SCT SLP192 60000 T01310120 55003 $
KCBM 172052Z AUTO 32017G22KT 10SM SCT008 OVC014 14/12 A3009 RMK AO2 CIG 009 RWY13C SLP192 $
KCBM 172026Z AUTO 28012KT 10SM OVC014 18/16 A3007 RMK AO2 SLP185 $
KCBM 171956Z AUTO 26004KT 10SM OVC017 19/17 A3006 RMK AO2 OVC V BKN CIG 016 RWY13C SLP182 T01870165 $
KCBM 171941Z AUTO 25005KT 10SM BKN019 OVC028 19/17 A3006 RMK AO2 CIG 016 RWY13C SLP182 $
KCBM 171921Z AUTO 23006KT 10SM OVC020 19/17 A3006 RMK AO2 CIG 017 RWY13C SLP182 $
KCBM 171856Z AUTO 21005KT 10SM OVC017 19/16 A3006 RMK AO2 RAB19E28 OVC V BKN SLP182 P0000 T01850161 $
KCBM 171828Z AUTO 17006KT 10SM OVC016 17/16 A3008 RMK AO2 RAB19E28 SLP189 $
KCBM 171819Z AUTO 21003KT 10SM -RA OVC016 17/15 A3008 RMK AO2 RAB19 SLP189 $
KCBM 171756Z AUTO 19006KT 10SM BKN015 17/15 A3010 RMK AO2 CIG 009V015 SLP195 60002 T01700152 10170 20097 53004 $
KCBM 171751Z AUTO 20007KT 10SM SCT010 BKN015 OVC023 17/15 A3010 RMK AO2 CIG 009V015 SLP195 $
KCBM 171726Z AUTO 21005KT 10SM OVC008 16/15 A3011 RMK AO2 SLP199 $
KCBM 171656Z AUTO 21006KT 10SM OVC007 15/14 A3010 RMK AO2 SLP196 T01480140 $
KCBM 171556Z AUTO 18007KT 10SM OVC007 13/12 A3008 RMK AO2 SLP189 T01320124 $
KCBM 171546Z AUTO 19009KT 10SM OVC007 13/12 A3009 RMK AO2 SLP192 $
KCBM 171531Z AUTO 19006KT 10SM OVC006 13/12 A3009 RMK AO2 SLP192 $
KCBM 171516Z AUTO 17007KT 10SM OVC007 12/12 A3008 RMK AO2 SLP189 $
KCBM 171456Z AUTO 19007KT 10SM OVC008 12/11 A3009 RMK AO2 SLP192 60002 T01160108 53004 $
KCBM 171402Z AUTO 14008KT 10SM OVC009 11/10 A3005 RMK AO2 CIG 009V011 SLP179 $
KCBM 171356Z AUTO 14008KT 10SM OVC011 11/10 A3005 RMK AO2 SLP179 T01060101 $
KCBM 171256Z AUTO 13006KT 10SM OVC012 10/10 A3007 RMK AO2 RAE11 SLP186 P0002 T00990097 $
KCBM 171212Z AUTO 10005KT 10SM FEW003 OVC014 10/09 A3007 RMK AO2 RAE11 SLP186 $
KCBM 171211Z AUTO 10005KT 10SM -RA FEW003 OVC014 10/09 A3007 RMK AO2 SLP186 $
KCBM 171156Z AUTO 00000KT 10SM -RA FEW004 OVC016 10/09 A3008 RMK AO2 DZB43E48RAB48 SLP189 P0002 60002 70002 T01010089 10102 20096 57012 $
KCBM 171153Z AUTO 00000KT 10SM -RA FEW006 OVC016 10/09 A3008 RMK AO2 DZB43E48RAB48 SLP189 $
KCBM 171143Z AUTO 00000KT 10SM -DZ OVC016 10/09 A3008 RMK AO2 DZB43 SLP189 $
KCBM 171056Z AUTO 09005KT 10SM OVC019 10/08 A3008 RMK AO2 SLP189 T01020083 $
KCBM 171046Z AUTO 09004KT 10SM OVC019 10/08 A3009 RMK AO2 SLP193 $
KCBM 171021Z AUTO 09004KT 10SM BKN020 OVC027 10/08 A3009 RMK AO2 CIG 020V027 BKN V FEW SLP193 $
KCBM 171016Z AUTO 00000KT 10SM SCT020 OVC027 10/08 A3010 RMK AO2 SLP196 $
KCBM 170956Z AUTO 00000KT 10SM OVC028 10/08 A3011 RMK AO2 SLP199 T01010082 $
KCBM 170951Z AUTO 08004KT 10SM OVC028 10/08 A3010 RMK AO2 SLP196 $
KCBM 170936Z AUTO 00000KT 10SM BKN027 OVC033 10/08 A3010 RMK AO2 CIG 027V034 BKN V FEW SLP196 $
KCBM 170901Z AUTO 00000KT 10SM BKN036 OVC070 10/08 A3011 RMK AO2 SLP199 $
KCBM 170856Z AUTO 00000KT 10SM SCT038 OVC070 10/08 A3011 RMK AO2 SLP199 T01000083 57022 $
KCBM 170826Z AUTO 08005KT 10SM SCT035 OVC070 10/08 A3012 RMK AO2 SLP203 $
KCBM 170756Z AUTO 00000KT 10SM FEW017 BKN039 OVC075 10/08 A3013 RMK AO2 SLP206 T00980082 $
KCBM 170711Z AUTO 00000KT 10SM SCT040 OVC075 10/08 A3015 RMK AO2 SLP213 $
KCBM 170656Z AUTO 04003KT 10SM BKN041 OVC075 10/08 A3015 RMK AO2 SLP213 T00960080 $
KCBM 170611Z AUTO 03004KT 10SM SCT015 OVC044 10/08 A3016 RMK AO2 PRESFR SLP216 $
KCBM 170556Z AUTO 01007KT 10SM BKN015 OVC046 10/08 A3018 RMK AO2 SLP222 60000 T01020081 10116 20102 402050102 58007 $
KCBM 170541Z AUTO 01006KT 10SM BKN015 OVC046 10/08 A3018 RMK AO2 CIG 015V046 SLP222 $
KCBM 170506Z AUTO 00000KT 10SM SCT018 OVC049 11/08 A3019 RMK AO2 SLP226 $
KCBM 170456Z AUTO 01005KT 10SM BKN017 OVC048 11/08 A3019 RMK AO2 CIG 017V048 SLP226 T01060084 $
KCBM 170446Z AUTO 36006KT 10SM SCT018 OVC048 11/08 A3020 RMK AO2 SLP229 $
KCBM 170436Z AUTO 02007KT 10SM BKN017 OVC046 11/08 A3019 RMK AO2 CIG 017V046 BKN V SCT SLP226 $
KCBM 170431Z AUTO 01008KT 10SM SCT017 OVC046 11/08 A3020 RMK AO2 SLP229 $
KCBM 170356Z AUTO 01007KT 10SM BKN018 OVC038 11/08 A3021 RMK AO2 SLP232 T01070083 $
KCBM 170336Z AUTO 01007KT 10SM BKN019 OVC036 11/09 A3021 RMK AO2 CIG 019V036 BKN V SCT SLP232 $
KCBM 170331Z AUTO 02006KT 10SM SCT019 OVC036 11/09 A3021 RMK AO2 SLP232 $
KCBM 170306Z AUTO 02007KT 10SM OVC019 11/08 A3021 RMK AO2 SLP232 $
KCBM 170256Z AUTO 02008KT 10SM BKN020 OVC037 11/09 A3020 RMK AO2 CIG 019 RWY13C SLP229 P0000 60000 T01110085 51004 $
KCBM 170236Z AUTO 01008KT 10SM BKN020 OVC037 11/09 A3021 RMK AO2 SLP232 $
KCBM 170211Z AUTO 01007KT 10SM BKN019 OVC038 11/09 A3021 RMK AO2 CIG 019V038 BKN V SCT SLP232 $
KCBM 170156Z AUTO 02008KT 10SM OVC037 11/09 A3020 RMK AO2 RAB45E55 SLP229 P0000 T01120088 $
KCBM 170155Z AUTO 02009KT 10SM OVC037 11/09 A3020 RMK AO2 RAB45E55 SLP229 $
KCBM 170145Z AUTO 01006KT 10SM -RA OVC037 11/09 A3020 RMK AO2 RAB45 SLP229 $
KCBM 170116Z AUTO 01006KT 10SM SCT020 OVC034 11/09 A3020 RMK AO2 SLP229 $
KCBM 170056Z AUTO 36010KT 10SM OVC017 12/09 A3020 RMK AO2 SLP229 T01150087 $
KCBM 162356Z AUTO 35009KT 10SM OVC017 12/09 A3019 RMK AO2 SLP226 60000 T01170087 10205 20117 52016 $
KCBM 162256Z AUTO 01010KT 10SM OVC017 12/10 A3018 RMK AO2 SLP223 T01230097 $
KCBM 162156Z AUTO 01011KT 10SM BKN017 OVC026 13/10 A3016 RMK AO2 CIG 017V026 BKN V SCT SLP216 T01270101 $
KCBM 162151Z AUTO 36008KT 10SM BKN017 OVC026 13/10 A3016 RMK AO2 CIG 017V026 BKN V FEW SLP216 $
KCBM 162136Z AUTO 35007KT 10SM FEW014 OVC026 13/10 A3016 RMK AO2 PRESRR SLP216 $
KCBM 162116Z AUTO 35009KT 10SM SCT012 OVC024 13/11 A3014 RMK AO2 CIG 011V024 SLP209 $
KCBM 162056Z AUTO 36008KT 10SM BKN011 OVC023 12/11 A3014 RMK AO2 SLP209 60000 T01230105 52021 $
KCBM 162046Z AUTO 01008KT 10SM OVC010 12/10 A3014 RMK AO2 CIG 008V010 SLP209 $
KCBM 162026Z AUTO 35011KT 10SM OVC008 12/11 A3013 RMK AO2 SLP205 $
KCBM 162011Z AUTO 36013G19KT 10SM OVC007 12/12 A3013 RMK AO2 SLP205 $
KCBM 161956Z 34012G19KT 10SM OVC006 13/12 A3012 RMK AO2A RAE13DZB13E14 SLP202 P0000 T01260123 $
KCBM 161916Z 34016KT 6SM BR BKN006 OVC014 13/13 A3011 RMK RAE13DZB13E14 SLP199 $
KCBM 161901Z COR 34019KT 5SM -RA BR SCT005 BKN014 OVC021 14/14 A3010 RMK AO2A CIG 005V014 BKN005 V SCT SLP195 $ COR 1907
KCBM 161856Z 34023G30KT 2SM -RA BR SCT005 BKN014 OVC021 15/15 A3010 RMK AO2A PK WND 35030/49 RAB38E48RAB54 CIG 006V014 BKN V OVC SLP195 P0000 T01530153 $
KCBM 161854Z 35022G30KT 2SM -RA BR SCT005 BKN014 OVC021 15/15 A3010 RMK AO2A RAB38E48RAB54 CIG 006V014 BKN V OVC SLP195 $
KCBM 161853Z 35023G30KT 2SM BR BKN006 OVC014 16/15 A3010 RMK AO2A RAB38E48 CIG 006V014 SLP195 $
KCBM 161848Z COR 34018G27KT 2SM SCT005 SCT009 OVC014 17/16 A3009 RMK AO2A RAB38E48 SLP191 $ COR 1850
KCBM 161844Z 33021G27KT 8SM -RA FEW002 FEW009 OVC014 18/17 A3009 RMK AO2A WSHFT 42 RAB38 SLP191 $
KCBM 161840Z 28006KT 2SM -RA FEW009 OVC014 20/18 A3008 RMK AO2A RAB38 SLP188 $
KCBM 161838Z 24007KT 10SM -RA OVC014 20/18 A3008 RMK AO2A RAB38 SLP188 $
KCBM 161756Z 25008KT 10SM FEW007 OVC017 20/18 A3008 RMK AO2A CIG 016 RWY13C SLP188 T02000178 10202 20159 58001 $
KCBM 161737Z 24008KT 10SM SCT007 OVC018 20/18 A3008 RMK AO2A SLP188 $
KCBM 161656Z COR AUTO 25012G16KT 10SM OVC018 20/17 A3009 RMK AO2 SLP191 T02010173 $ COR 1716
KCBM 161556Z AUTO 22008G16KT 10SM OVC018 20/17 A3008 RMK AO2 SLP188 T01970171 $
KCBM 161511Z AUTO 22009KT 10SM OVC019 19/17 A3009 RMK AO2 SLP191 $
KCBM 161501Z AUTO 22009KT 10SM OVC020 19/16 A3008 RMK AO2 SLP188 $
KCBM 161456Z AUTO 22007KT 10SM OVC021 19/16 A3008 RMK AO2 SLP188 T01900164 52012 $
KCBM 161436Z AUTO 22007KT 10SM OVC024 19/17 A3008 RMK AO2 CIG 023 RWY13C SLP188 $
KCBM 161416Z AUTO 21009KT 10SM BKN027 OVC038 19/16 A3007 RMK AO2 CIG 027V038 SLP184 $
KCBM 161411Z AUTO 22007KT 10SM BKN029 OVC038 18/17 A3008 RMK AO2 CIG 029V038 BKN V SCT SLP188 $
KCBM 161356Z AUTO 22007KT 10SM BKN039 OVC050 18/16 A3008 RMK AO2 SLP188 T01810164 $
KCBM 161351Z AUTO 23005KT 10SM BKN041 OVC050 18/16 A3008 RMK AO2 SLP188 $
KCBM 161321Z AUTO 21008KT 10SM FEW021 OVC050 17/16 A3007 RMK AO2 SLP184 $
KCBM 161316Z AUTO 21008KT 10SM FEW021 BKN047 OVC055 17/16 A3007 RMK AO2 SLP184 $
KCBM 161256Z AUTO 20008KT 10SM OVC020 17/16 A3007 RMK AO2 CIG 020V055 SLP184 T01680158 $
KCBM 161251Z AUTO 22009KT 10SM SCT019 17/16 A3007 RMK AO2 SLP184 $
KCBM 161156Z COR 20006KT 10SM BKN019 16/16 A3005 RMK AO2A SLP178 T01590159 10180 20159 53008 $ COR 1231
KCBM 161056Z AUTO 20007KT 10SM CLR 17/16 A3002 RMK AO2 SLP167 T01650160 $
KCBM 160956Z AUTO 20007KT 10SM CLR 17/16 A3001 RMK AO2 SLP164 T01680163 $
KCBM 160856Z AUTO 20007KT 10SM CLR 17/17 A3002 RMK AO2 SLP167 T01740166 58004 $
KCBM 160756Z AUTO 20007KT 10SM CLR 18/17 A3004 RMK AO2 SLP174 T01780170 $
KCBM 160656Z AUTO 19005KT 10SM CLR 17/17 A3004 RMK AO2 SLP174 T01700167 $
KCBM 160556Z AUTO 18005KT 10SM CLR 18/17 A3004 RMK AO2 SLP174 T01790166 10235 20176 402670176 53002 $
KCBM 160456Z AUTO 23003KT 10SM CLR 19/17 A3004 RMK AO2 SLP174 T01900168 $
KCBM 160356Z AUTO 18007KT 10SM CLR 21/17 A3003 RMK AO2 SLP171 T02050171 $
KCBM 160256Z AUTO 20005KT 10SM CLR 21/17 A3003 RMK AO2 SLP171 T02060168 53003 $
KCBM 160156Z AUTO 18007KT 10SM CLR 22/17 A3001 RMK AO2 SLP164 T02150171 $
KCBM 160056Z AUTO 18006KT 10SM CLR 21/17 A3002 RMK AO2 SLP167 T02120166 $
KCBM 152356Z AUTO 20006KT 10SM CLR 24/18 A3002 RMK AO2 SLP167 T02360176 10267 20236 55007 $
KCBM 152256Z AUTO 22010KT 10SM CLR 25/18 A3001 RMK AO2 SLP164 T02520179 $
KCBM 152156Z AUTO 20014G20KT 10SM CLR 26/18 A3002 RMK AO2 SLP167 T02630182 $
KCBM 152056Z AUTO 21011G19KT 10SM FEW041 26/19 A3004 RMK AO2 SLP174 T02630189 57039 $
KCBM 151956Z AUTO 21014G20KT 10SM FEW037 26/19 A3007 RMK AO2 SLP184 T02630189 $
KCBM 151946Z AUTO 20011G18KT 10SM SCT037 SCT045 26/19 A3007 RMK AO2 SLP184 $
KCBM 151906Z AUTO 21014G17KT 10SM SCT036 SCT045 26/19 A3010 RMK AO2 SLP194 $
KCBM 151901Z AUTO 22015G20KT 10SM SCT036 BKN044 26/19 A3010 RMK AO2 SLP194 $
KCBM 151856Z AUTO 22013G20KT 10SM SCT036 SCT044 25/19 A3010 RMK AO2 PRESFR SLP194 T02530189 $